Airport details for: EIWF (Ireland)

Metar

EIWF 271930Z 33004KT 310V010 9999 BKN025 15/12 Q1015

General details

ICAO: EIWF
IATA: WAT
Name (city): Waterford
Major:
Country: Ireland
vACC: vACC Ireland
Description:
Scenery links:
FS9 scenery:
FSX/P3D scenery:
XP scenery:
Elevation: 119 ft.
Transition altitude: 5000 ft.
MSA: 4700 ft.
Latitude: 52.187222
Longitude: -7.086944
EIWF Charts
EIWF Notams
EIWF Online stations

Runways

Number Course Length Elevation Lat Lon ILS ILS freq ILS FAC GP
03 26° 4701ft / 1433 m 86ft 52.181939 -7.090247 - - 3.0°
21 206° 4701ft / 1433 m 113ft 52.192011 -7.083956 110.9 206° 3.2°